createdAt,value
2023-07-18T00:01:17.886Z,55.45
2023-07-18T00:06:22.755Z,55.44
2023-07-18T00:11:26.600Z,55.53
2023-07-18T00:16:31.702Z,55.60
2023-07-18T00:21:35.510Z,55.64
2023-07-18T00:26:39.729Z,55.74
2023-07-18T00:31:43.615Z,56.42
2023-07-18T00:36:47.507Z,57.25
2023-07-18T00:41:51.949Z,58.41
2023-07-18T00:46:56.592Z,58.95
2023-07-18T00:52:02.552Z,59.53
2023-07-18T00:57:08.714Z,60.02
2023-07-18T01:02:14.024Z,60.45
2023-07-18T01:07:17.768Z,61.38
2023-07-18T01:12:21.662Z,61.73
2023-07-18T01:17:25.507Z,62.64
2023-07-18T01:22:29.325Z,62.94
2023-07-18T01:27:33.226Z,63.26
2023-07-18T01:32:37.619Z,63.46
2023-07-18T01:37:41.511Z,63.64
2023-07-18T01:42:45.460Z,63.95
2023-07-18T01:47:50.283Z,64.32
2023-07-18T01:52:54.526Z,64.48
2023-07-18T01:57:58.323Z,64.76
2023-07-18T02:03:03.039Z,65.41
2023-07-18T02:08:07.112Z,65.87
2023-07-18T02:13:10.925Z,66.43
2023-07-18T02:18:14.810Z,66.98
2023-07-18T02:23:18.672Z,67.61
2023-07-18T02:28:22.573Z,68.22
2023-07-18T02:33:26.629Z,68.81
2023-07-18T02:38:30.615Z,69.21
2023-07-18T02:43:34.359Z,69.91
2023-07-18T02:48:38.920Z,70.33
2023-07-18T02:53:42.604Z,70.78
2023-07-18T02:58:46.333Z,71.42
2023-07-18T03:03:50.646Z,71.73
2023-07-18T03:08:54.586Z,72.37
2023-07-18T03:13:58.369Z,72.67
2023-07-18T03:19:02.313Z,73.26
2023-07-18T03:24:09.230Z,73.65
2023-07-18T03:29:13.120Z,74.17
2023-07-18T03:34:16.937Z,74.78
2023-07-18T03:39:22.870Z,75.26
2023-07-18T03:44:26.950Z,75.87
2023-07-18T03:49:30.992Z,74.58
2023-07-18T03:54:35.535Z,73.03
2023-07-18T03:59:40.141Z,72.02
2023-07-18T04:04:44.167Z,70.93
2023-07-18T04:09:48.333Z,69.76
2023-07-18T04:14:52.580Z,69.02
2023-07-18T04:20:00.807Z,67.38
2023-07-18T04:25:04.933Z,66.98
2023-07-18T04:30:09.886Z,66.50
2023-07-18T04:35:13.878Z,65.82
2023-07-18T04:40:17.840Z,65.09
2023-07-18T04:45:21.581Z,64.96
2023-07-18T04:50:26.603Z,64.63
2023-07-18T04:55:32.224Z,64.19
2023-07-18T05:00:36.737Z,62.91
2023-07-18T05:05:41.400Z,62.48
2023-07-18T05:10:46.684Z,61.86
2023-07-18T05:15:50.750Z,61.03
2023-07-18T05:20:57.300Z,62.13
2023-07-18T05:26:01.002Z,63.30
2023-07-18T05:31:09.921Z,64.32
2023-07-18T05:36:13.836Z,64.73
2023-07-18T05:41:17.975Z,64.79
2023-07-18T05:46:22.338Z,65.12
2023-07-18T05:51:26.338Z,65.17
2023-07-18T05:56:30.141Z,65.43
2023-07-18T06:01:34.020Z,64.92
2023-07-18T06:06:38.056Z,64.97
2023-07-18T06:11:41.910Z,64.72
2023-07-18T06:16:46.739Z,64.30
2023-07-18T06:21:50.684Z,64.21
2023-07-18T06:26:54.619Z,63.48
2023-07-18T06:31:59.563Z,63.32
2023-07-18T06:37:11.441Z,62.48
2023-07-18T06:42:15.893Z,62.23
2023-07-18T06:47:19.936Z,62.92
2023-07-18T06:52:23.784Z,63.13
2023-07-18T06:57:27.580Z,61.74
2023-07-18T07:02:31.523Z,61.65
2023-07-18T07:07:35.440Z,60.82
2023-07-18T07:12:42.769Z,60.46
2023-07-18T07:17:46.579Z,59.47
2023-07-18T07:22:50.556Z,58.78
2023-07-18T07:27:55.102Z,59.62
2023-07-18T07:32:59.105Z,58.72
2023-07-18T07:38:03.547Z,58.88
2023-07-18T07:43:07.332Z,58.72
2023-07-18T07:48:11.163Z,58.49
2023-07-18T07:53:14.962Z,56.49
2023-07-18T07:58:18.603Z,56.41
2023-07-18T08:03:22.361Z,56.70
2023-07-18T08:08:26.944Z,56.37
2023-07-18T08:13:30.702Z,56.15
2023-07-18T08:18:35.957Z,54.75
2023-07-18T08:23:40.243Z,53.85
2023-07-18T08:28:43.998Z,53.19
2023-07-18T08:33:47.840Z,53.25
2023-07-18T08:38:51.762Z,53.04
2023-07-18T08:43:56.760Z,53.32
2023-07-18T08:49:01.489Z,52.91
2023-07-18T08:54:05.523Z,52.30
2023-07-18T08:59:09.471Z,51.09
2023-07-18T09:04:13.439Z,51.82
2023-07-18T09:09:22.704Z,51.76
2023-07-18T09:14:31.357Z,51.26
2023-07-18T09:19:37.254Z,50.01
2023-07-18T09:24:42.526Z,50.13
2023-07-18T09:29:47.554Z,49.00
2023-07-18T09:34:59.167Z,48.76
2023-07-18T09:40:03.767Z,48.66
2023-07-18T09:50:15.498Z,47.65
2023-07-18T09:55:28.526Z,47.16
2023-07-18T10:00:32.813Z,46.44
2023-07-18T10:05:36.517Z,45.81
2023-07-18T10:10:40.171Z,46.06
2023-07-18T10:16:17.488Z,46.18
2023-07-18T10:21:35.069Z,46.05
2023-07-18T10:26:38.903Z,45.33
2023-07-18T10:31:42.820Z,44.82
2023-07-18T10:36:59.380Z,45.35
2023-07-18T10:42:09.770Z,44.80
2023-07-18T10:47:22.212Z,44.47
2023-07-18T10:52:26.184Z,44.26
2023-07-18T10:57:31.917Z,43.18
2023-07-18T11:02:43.498Z,42.78
2023-07-18T11:07:49.573Z,42.51
2023-07-18T11:12:54.387Z,42.05
2023-07-18T11:17:58.326Z,42.00
2023-07-18T11:23:02.314Z,42.36
2023-07-18T11:28:06.386Z,41.15
2023-07-18T11:33:17.637Z,41.23
2023-07-18T11:38:24.527Z,40.07
2023-07-18T11:43:31.682Z,40.85
2023-07-18T11:48:35.852Z,40.39
2023-07-18T11:53:41.176Z,39.97
2023-07-18T11:58:45.565Z,39.89
2023-07-18T12:03:52.356Z,38.35
2023-07-18T12:08:56.138Z,38.40
2023-07-18T12:14:01.583Z,37.77
2023-07-18T12:19:05.206Z,37.99
2023-07-18T12:24:09.072Z,37.97
2023-07-18T12:29:18.363Z,37.38
2023-07-18T12:34:22.704Z,36.83
2023-07-18T12:39:26.482Z,37.52
2023-07-18T12:44:42.147Z,37.50
2023-07-18T12:54:52.731Z,36.95
2023-07-18T12:59:56.525Z,36.11
2023-07-18T13:05:03.198Z,36.56
2023-07-18T13:10:07.705Z,37.11
2023-07-18T13:15:11.718Z,36.79
2023-07-18T13:20:17.225Z,36.48
2023-07-18T13:25:21.664Z,36.03
2023-07-18T13:30:26.027Z,35.89
2023-07-18T13:35:29.924Z,35.64
2023-07-18T13:40:33.627Z,35.38
2023-07-18T13:45:37.264Z,35.86
2023-07-18T13:50:41.700Z,35.42
2023-07-18T13:55:46.357Z,35.47
2023-07-18T14:00:50.228Z,35.43
2023-07-18T14:05:54.796Z,34.18
2023-07-18T14:10:58.548Z,34.51
2023-07-18T14:16:02.607Z,34.75
2023-07-18T14:21:06.875Z,34.29
2023-07-18T14:26:10.663Z,34.85
2023-07-18T14:31:15.005Z,34.63
2023-07-18T14:36:20.649Z,34.23
2023-07-18T14:41:25.105Z,34.45
2023-07-18T14:46:28.947Z,34.21
2023-07-18T14:51:33.851Z,33.79
2023-07-18T14:56:38.702Z,33.75
2023-07-18T15:01:44.038Z,34.04
2023-07-18T15:06:47.925Z,33.46
2023-07-18T15:11:52.070Z,33.62
2023-07-18T15:16:58.625Z,33.65
2023-07-18T15:22:03.167Z,34.00
2023-07-18T15:27:06.917Z,34.52
2023-07-18T15:32:10.715Z,34.01
2023-07-18T15:37:14.424Z,33.85
2023-07-18T15:42:19.257Z,33.58
2023-07-18T15:47:29.296Z,33.40
2023-07-18T15:52:33.258Z,33.26
2023-07-18T15:57:37.602Z,33.12
2023-07-18T16:02:41.584Z,32.96
2023-07-18T16:07:45.769Z,32.96
2023-07-18T16:12:49.636Z,32.95
2023-07-18T16:18:04.360Z,33.39
2023-07-18T16:23:08.392Z,33.51
2023-07-18T16:28:12.861Z,33.50
2023-07-18T16:33:16.981Z,33.24
2023-07-18T16:38:23.098Z,32.80
2023-07-18T16:43:28.499Z,32.97
2023-07-18T16:48:33.320Z,33.01
2023-07-18T16:53:38.300Z,33.38
2023-07-18T16:58:45.924Z,32.94
2023-07-18T17:03:49.826Z,32.20
2023-07-18T17:08:54.212Z,31.93
2023-07-18T17:13:58.109Z,31.22
2023-07-18T17:19:02.393Z,30.86
2023-07-18T17:24:07.289Z,30.95
2023-07-18T17:29:11.321Z,30.85
2023-07-18T17:34:16.225Z,30.55
2023-07-18T17:39:21.220Z,30.65
2023-07-18T17:44:25.468Z,30.80
2023-07-18T17:49:30.537Z,30.76
2023-07-18T17:54:34.616Z,31.36
2023-07-18T17:59:39.094Z,31.70
2023-07-18T18:04:43.951Z,32.06
2023-07-18T18:09:48.156Z,32.50
2023-07-18T18:14:53.406Z,32.78
2023-07-18T18:19:57.510Z,33.22
2023-07-18T18:25:01.783Z,33.51
2023-07-18T18:30:07.478Z,33.94
2023-07-18T18:35:12.827Z,34.15
2023-07-18T18:40:18.594Z,34.61
2023-07-18T18:45:26.310Z,35.34
2023-07-18T18:50:30.680Z,35.52
2023-07-18T18:55:40.033Z,35.87
2023-07-18T19:00:46.301Z,36.77
2023-07-18T19:05:50.503Z,37.83
2023-07-18T19:11:07.179Z,38.16
2023-07-18T19:16:37.717Z,38.54
2023-07-18T19:21:44.270Z,39.12
2023-07-18T19:26:50.704Z,39.58
2023-07-18T19:31:55.913Z,39.97
2023-07-18T19:37:02.694Z,40.17
2023-07-18T19:42:10.002Z,40.66
2023-07-18T19:47:14.686Z,41.20
2023-07-18T19:52:19.823Z,41.72
2023-07-18T19:57:25.515Z,42.63
2023-07-18T20:02:30.530Z,43.54
2023-07-18T20:07:34.639Z,44.46
2023-07-18T20:12:38.882Z,44.91
2023-07-18T20:17:43.377Z,45.48
2023-07-18T20:22:47.793Z,46.29
2023-07-18T20:27:55.228Z,46.27
2023-07-18T20:33:00.338Z,47.02
2023-07-18T20:38:05.617Z,47.57
2023-07-18T20:43:10.232Z,48.30
2023-07-18T20:48:15.159Z,49.24
2023-07-18T20:53:19.592Z,50.15
2023-07-18T20:58:24.577Z,51.22
2023-07-18T21:03:29.280Z,51.85
2023-07-18T21:08:33.210Z,51.70
2023-07-18T21:13:37.009Z,51.79
2023-07-18T21:18:40.816Z,52.22
2023-07-18T21:23:44.749Z,52.35
2023-07-18T21:29:03.104Z,52.73
2023-07-18T21:34:08.850Z,53.30
2023-07-18T21:39:12.610Z,53.44
2023-07-18T21:44:16.356Z,53.94
2023-07-18T21:49:20.173Z,54.33
2023-07-18T21:54:23.931Z,54.91
2023-07-18T21:59:27.688Z,55.32
2023-07-18T22:04:31.913Z,56.01
2023-07-18T22:09:36.457Z,56.54
2023-07-18T22:14:40.319Z,56.77
2023-07-18T22:19:44.633Z,57.70
2023-07-18T22:24:48.854Z,58.21
2023-07-18T22:29:53.271Z,58.48
2023-07-18T22:34:57.077Z,58.85
2023-07-18T22:40:00.896Z,58.99
2023-07-18T22:45:05.193Z,58.96
2023-07-18T22:50:09.846Z,59.01
2023-07-18T22:55:13.732Z,59.21
2023-07-18T23:00:30.379Z,59.13
2023-07-18T23:05:34.243Z,59.02
2023-07-18T23:10:37.896Z,59.07
2023-07-18T23:15:41.727Z,58.91
2023-07-18T23:20:45.868Z,59.46
2023-07-18T23:25:49.560Z,59.75
2023-07-18T23:30:53.434Z,60.23
2023-07-18T23:35:57.152Z,60.11
2023-07-18T23:41:00.975Z,59.79
2023-07-18T23:46:05.231Z,60.00
2023-07-18T23:51:08.855Z,60.42
2023-07-18T23:56:12.529Z,60.65
